createdAt,value
2023-04-09T00:03:12.886Z,10.18
2023-04-09T00:08:28.715Z,10.45
2023-04-09T00:13:44.765Z,9.85
2023-04-09T00:19:01.427Z,8.88
2023-04-09T00:24:17.154Z,7.57
2023-04-09T00:29:33.089Z,9.23
2023-04-09T00:34:48.991Z,6.70
2023-04-09T00:40:05.960Z,5.80
2023-04-09T00:45:21.457Z,6.63
2023-04-09T00:50:37.030Z,5.82
2023-04-09T00:55:54.035Z,6.25
2023-04-09T01:01:09.810Z,6.57
2023-04-09T01:06:32.462Z,6.32
2023-04-09T01:11:51.227Z,6.68
2023-04-09T01:17:29.773Z,5.95
2023-04-09T01:23:10.631Z,6.32
2023-04-09T01:28:33.461Z,5.80
2023-04-09T01:33:48.970Z,6.13
2023-04-09T01:39:06.599Z,5.07
2023-04-09T01:44:23.928Z,5.57
2023-04-09T01:49:42.006Z,5.70
2023-04-09T01:54:58.075Z,5.07
2023-04-09T02:00:15.245Z,3.63
2023-04-09T02:05:36.741Z,3.72
2023-04-09T02:10:58.337Z,4.63
2023-04-09T02:16:16.455Z,3.80
2023-04-09T02:21:32.766Z,4.35
2023-04-09T02:26:48.264Z,4.10
2023-04-09T02:32:04.297Z,3.85
2023-04-09T02:37:20.230Z,3.55
2023-04-09T02:42:36.036Z,3.60
2023-04-09T02:47:51.941Z,3.53
2023-04-09T02:53:08.013Z,3.97
2023-04-09T02:58:23.955Z,3.00
2023-04-09T03:03:42.434Z,3.78
2023-04-09T03:08:58.201Z,3.17
2023-04-09T03:14:14.222Z,3.47
2023-04-09T03:19:31.429Z,3.83
2023-04-09T03:24:46.980Z,3.20
2023-04-09T03:30:03.489Z,3.47
2023-04-09T03:35:19.453Z,3.03
2023-04-09T03:40:36.666Z,3.30
2023-04-09T03:45:52.735Z,3.25
2023-04-09T03:51:16.099Z,3.08
2023-04-09T03:56:31.835Z,3.63
2023-04-09T04:01:48.458Z,3.15
2023-04-09T04:07:04.967Z,2.78
2023-04-09T04:12:20.804Z,3.05
2023-04-09T04:17:36.778Z,3.08
2023-04-09T04:22:52.693Z,3.85
2023-04-09T04:28:08.841Z,4.28
2023-04-09T04:33:25.879Z,4.00
2023-04-09T04:38:42.432Z,2.92
2023-04-09T04:43:58.289Z,3.58
2023-04-09T04:49:13.868Z,3.55
2023-04-09T04:54:29.919Z,3.55
2023-04-09T04:59:45.819Z,3.78
2023-04-09T05:05:01.336Z,4.03
2023-04-09T05:10:16.714Z,3.47
2023-04-09T05:15:32.637Z,3.35
2023-04-09T05:20:48.559Z,4.03
2023-04-09T05:26:04.654Z,3.92
2023-04-09T05:31:20.551Z,4.32
2023-04-09T05:36:36.477Z,4.10
2023-04-09T05:41:52.650Z,4.20
2023-04-09T05:47:08.087Z,3.25
2023-04-09T05:52:24.000Z,3.85
2023-04-09T05:57:39.787Z,3.40
2023-04-09T06:02:55.234Z,3.83
2023-04-09T06:08:11.385Z,4.38
2023-04-09T06:13:27.017Z,3.60
2023-04-09T06:18:42.751Z,3.35
2023-04-09T06:23:58.589Z,3.42
2023-04-09T06:29:14.237Z,3.28
2023-04-09T06:34:29.896Z,3.22
2023-04-09T06:40:00.013Z,3.75
2023-04-09T06:45:16.868Z,3.78
2023-04-09T06:50:33.004Z,3.47
2023-04-09T06:55:48.434Z,3.10
2023-04-09T07:01:04.069Z,3.53
2023-04-09T07:06:19.688Z,3.08
2023-04-09T07:11:35.417Z,2.97
2023-04-09T07:16:51.374Z,2.50
2023-04-09T07:22:07.318Z,2.90
2023-04-09T07:27:30.370Z,3.03
2023-04-09T07:32:45.842Z,2.85
2023-04-09T07:38:01.694Z,3.10
2023-04-09T07:43:17.527Z,3.85
2023-04-09T07:48:32.978Z,3.65
2023-04-09T07:53:48.528Z,3.22
2023-04-09T07:59:04.947Z,3.75
2023-04-09T08:04:20.763Z,3.08
2023-04-09T08:09:36.584Z,3.53
2023-04-09T08:14:52.771Z,2.85
2023-04-09T08:20:08.996Z,3.00
2023-04-09T08:25:25.005Z,3.67
2023-04-09T08:30:40.376Z,4.07
2023-04-09T08:35:56.327Z,3.90
2023-04-09T08:41:21.692Z,3.60
2023-04-09T08:46:37.912Z,3.83
2023-04-09T08:51:53.790Z,4.20
2023-04-09T08:57:09.175Z,4.50
2023-04-09T09:02:25.297Z,4.40
2023-04-09T09:07:54.808Z,4.65
2023-04-09T09:13:25.551Z,4.32
2023-04-09T09:18:44.659Z,4.63
2023-04-09T09:24:01.186Z,5.63
2023-04-09T09:29:17.101Z,4.38
2023-04-09T09:34:32.752Z,5.22
2023-04-09T09:39:48.646Z,5.55
2023-04-09T09:45:19.714Z,6.07
2023-04-09T09:50:36.722Z,6.32
2023-04-09T09:55:56.694Z,6.95
2023-04-09T10:01:17.430Z,6.70
2023-04-09T10:06:38.962Z,6.22
2023-04-09T10:11:58.217Z,6.38
2023-04-09T10:17:14.349Z,7.32
2023-04-09T10:22:33.752Z,6.85
2023-04-09T10:28:03.085Z,6.50
2023-04-09T10:33:28.123Z,5.97
2023-04-09T10:38:47.228Z,5.50
2023-04-09T10:44:07.603Z,5.90
2023-04-09T10:49:25.591Z,6.50
2023-04-09T10:54:46.732Z,7.28
2023-04-09T11:00:02.753Z,6.50
2023-04-09T11:05:18.756Z,5.75
2023-04-09T11:10:35.011Z,5.72
2023-04-09T11:15:51.203Z,4.70
2023-04-09T11:21:07.378Z,5.22
2023-04-09T11:26:36.715Z,4.65
2023-04-09T11:31:52.341Z,4.90
2023-04-09T11:37:17.157Z,2.58
2023-04-09T11:42:33.053Z,3.58
2023-04-09T11:47:49.785Z,2.70
2023-04-09T11:53:19.725Z,2.92
2023-04-09T11:58:36.705Z,2.78
2023-04-09T12:03:55.161Z,3.95
2023-04-09T12:09:13.834Z,3.78
2023-04-09T12:14:29.528Z,3.83
2023-04-09T12:19:48.890Z,3.25
2023-04-09T12:25:04.822Z,3.22
2023-04-09T12:30:20.526Z,3.15
2023-04-09T12:35:38.493Z,2.90
2023-04-09T12:40:54.864Z,2.92
2023-04-09T12:46:10.911Z,2.88
2023-04-09T12:51:26.904Z,2.97
2023-04-09T12:56:43.114Z,3.05
2023-04-09T13:01:58.799Z,2.67
2023-04-09T13:07:17.622Z,3.67
2023-04-09T13:12:33.216Z,2.90
2023-04-09T13:17:48.959Z,2.45
2023-04-09T13:23:04.469Z,2.40
2023-04-09T13:28:19.910Z,2.30
2023-04-09T13:33:35.708Z,2.33
2023-04-09T13:38:52.163Z,2.10
2023-04-09T13:44:08.365Z,2.13
2023-04-09T13:49:24.409Z,2.58
2023-04-09T13:54:40.885Z,2.60
2023-04-09T13:59:56.767Z,1.73
2023-04-09T14:05:12.880Z,2.72
2023-04-09T14:10:28.682Z,2.60
2023-04-09T14:15:45.651Z,2.60
2023-04-09T14:21:01.682Z,1.92
2023-04-09T14:26:17.240Z,2.35
2023-04-09T14:31:33.199Z,2.17
2023-04-09T14:36:48.994Z,2.78
2023-04-09T14:42:04.860Z,1.88
2023-04-09T14:47:20.926Z,2.20
2023-04-09T14:52:36.826Z,2.38
2023-04-09T14:57:52.888Z,2.17
2023-04-09T15:03:08.862Z,2.40
2023-04-09T15:08:25.071Z,2.05
2023-04-09T15:13:41.045Z,2.00
2023-04-09T15:18:59.018Z,2.70
2023-04-09T15:24:14.968Z,1.60
2023-04-09T15:29:32.381Z,1.80
2023-04-09T15:34:48.196Z,1.50
2023-04-09T15:40:04.733Z,1.33
2023-04-09T15:45:20.844Z,1.65
2023-04-09T15:50:37.063Z,1.63
2023-04-09T15:55:52.856Z,1.50
2023-04-09T16:01:09.852Z,1.75
2023-04-09T16:06:25.796Z,1.63
2023-04-09T16:11:41.679Z,1.67
2023-04-09T16:16:57.587Z,2.28
2023-04-09T16:22:13.747Z,1.95
2023-04-09T16:27:29.444Z,2.15
2023-04-09T16:32:45.570Z,1.70
2023-04-09T16:38:01.776Z,1.60
2023-04-09T16:43:17.415Z,1.80
2023-04-09T16:48:34.385Z,2.10
2023-04-09T16:53:50.454Z,1.98
2023-04-09T16:59:06.345Z,2.10
2023-04-09T17:04:22.399Z,2.15
2023-04-09T17:09:38.404Z,2.63
2023-04-09T17:14:55.586Z,3.63
2023-04-09T17:20:12.597Z,3.13
2023-04-09T17:25:30.032Z,2.47
2023-04-09T17:30:45.646Z,2.80
2023-04-09T17:36:01.945Z,2.85
2023-04-09T17:41:18.344Z,3.00
2023-04-09T17:46:34.813Z,3.53
2023-04-09T17:51:50.875Z,4.07
2023-04-09T17:57:08.100Z,6.10
2023-04-09T18:02:24.310Z,5.57
2023-04-09T18:07:40.219Z,5.70
2023-04-09T18:12:56.118Z,8.00
2023-04-09T18:18:12.056Z,7.63
2023-04-09T18:23:28.059Z,6.82
2023-04-09T18:28:44.035Z,6.70
2023-04-09T18:34:00.058Z,8.50
2023-04-09T18:39:16.338Z,9.63
2023-04-09T18:44:36.328Z,7.32
2023-04-09T18:49:52.392Z,6.97
2023-04-09T18:55:09.052Z,6.72
2023-04-09T19:00:24.876Z,6.68
2023-04-09T19:05:40.757Z,6.53
2023-04-09T19:10:56.822Z,9.07
2023-04-09T19:16:12.767Z,6.45
2023-04-09T19:21:29.196Z,5.00
2023-04-09T19:26:45.143Z,4.80
2023-04-09T19:32:01.397Z,4.60
2023-04-09T19:37:19.271Z,5.60
2023-04-09T19:42:34.795Z,5.22
2023-04-09T19:47:50.389Z,5.13
2023-04-09T19:53:07.246Z,8.35
2023-04-09T19:58:24.361Z,6.53
2023-04-09T20:03:40.392Z,7.63
2023-04-09T20:08:56.783Z,6.53
2023-04-09T20:14:12.781Z,5.28
2023-04-09T20:19:28.588Z,4.72
2023-04-09T20:24:44.435Z,3.83
2023-04-09T20:30:00.501Z,4.80
2023-04-09T20:35:16.736Z,5.47
2023-04-09T20:40:35.632Z,5.82
2023-04-09T20:45:53.198Z,5.40
2023-04-09T20:51:12.200Z,5.88
2023-04-09T20:56:28.157Z,6.30
2023-04-09T21:01:44.275Z,6.38
2023-04-09T21:06:59.971Z,6.85
2023-04-09T21:12:16.007Z,7.00
2023-04-09T21:17:33.122Z,6.85
2023-04-09T21:22:48.903Z,6.22
2023-04-09T21:28:06.710Z,7.35
2023-04-09T21:33:22.385Z,4.95
2023-04-09T21:38:38.504Z,5.85
2023-04-09T21:43:54.143Z,5.43
2023-04-09T21:49:10.077Z,6.30
2023-04-09T21:54:26.047Z,6.70
2023-04-09T21:59:42.345Z,6.18
2023-04-09T22:05:01.424Z,5.53
2023-04-09T22:10:17.465Z,5.13
2023-04-09T22:15:33.496Z,5.40
2023-04-09T22:20:49.231Z,5.90
2023-04-09T22:26:05.431Z,5.28
2023-04-09T22:31:21.728Z,4.85
2023-04-09T22:36:37.622Z,4.95
2023-04-09T22:41:54.328Z,6.25
2023-04-09T22:47:10.121Z,6.10
2023-04-09T22:52:25.928Z,6.18
2023-04-09T22:57:43.285Z,6.05
2023-04-09T23:02:59.270Z,5.53
2023-04-09T23:08:14.959Z,6.53
2023-04-09T23:13:30.832Z,5.75
2023-04-09T23:18:46.715Z,6.10
2023-04-09T23:24:02.737Z,7.20
2023-04-09T23:29:18.584Z,6.78
2023-04-09T23:34:34.444Z,6.13
2023-04-09T23:39:49.916Z,6.43
2023-04-09T23:45:06.748Z,6.65
2023-04-09T23:50:23.333Z,6.78
2023-04-09T23:55:41.486Z,7.55
